Cap Isabel — VRGA2 — position and weather

sailwx.info

Track history (hours):
 
Tides and Currents Weather Stations Pressure Air Temp Water Temp Dewpoint Dewpoint Depression Visibility Wind Speed Wind Dir Waves Ship Positions

Cap Isabel

Last reported at 2014-Oct-20 16:33 UTC. Time now 2014-Oct-31 19:19 UTC.
Position N 25°45' W 079°59'.
Warning: this ship's position is 11 days out of date.

Length 264 m; draft 9.6 m.

Type: Ship (hazmat cat C). MMSI: 477639500.

Date/timePositionNaut miles runAvg speedWind from/ knotsBaromVisibWave heightAir tempDewpointWater temp
2014-Oct-20 16:33N 25°45' W 079°59'1818.1
2014-Oct-20 15:33N 26°03' W 080°04'3 2.9
2014-Oct-20 14:33N 26°04' W 080°07'0 0.0
2014-Oct-20 13:32N 26°04' W 080°07'0 0.0
2014-Oct-20 12:29N 26°04' W 080°07'0 0.0
2014-Oct-20 11:32N 26°04' W 080°07'0 0.0
2014-Oct-20 10:23N 26°04' W 080°07'0 0.0
2014-Oct-20 09:32N 26°04' W 080°07'0 0.0
2014-Oct-20 08:23N 26°04' W 080°07'0 0.0
2014-Oct-20 07:26N 26°04' W 080°07'0 0.0
2014-Oct-20 06:23N 26°04' W 080°07'0 0.0
2014-Oct-20 05:23N 26°04' W 080°07'0 0.0
2014-Oct-20 04:29N 26°04' W 080°07'0 0.0
2014-Oct-20 03:29N 26°04' W 080°07'0 0.0
2014-Oct-20 02:29N 26°04' W 080°07'0 0.0
2014-Oct-20 01:29N 26°04' W 080°07'0 0.0
2014-Oct-20 00:32N 26°04' W 080°07'0 0.0
2014-Oct-19 23:32N 26°04' W 080°07'0 0.0
2014-Oct-19 22:32N 26°04' W 080°07'0 0.0
2014-Oct-19 21:32N 26°04' W 080°07'1 1.3
2014-Oct-19 20:33N 26°05' W 080°07'7 6.7
2014-Oct-19 19:33N 26°10' W 080°01'0 0.3
2014-Oct-19 18:27N 26°10' W 080°02'0 0.5
2014-Oct-19 17:30N 26°10' W 080°02'0 0.4
2014-Oct-19 16:30N 26°09' W 080°02'6 6.7
2014-Oct-19 15:33N 26°15' W 080°00'10 9.5
2014-Oct-19 14:33N 26°25' W 079°58'10 9.8
2014-Oct-19 13:33N 26°34' W 079°55'1010.2
2014-Oct-19 12:33N 26°44' W 079°53'1414.2
2014-Oct-19 11:33N 26°58' W 079°53'48710.6
2014-Oct-17 13:33N 34°21' W 075°58'14515.5
2014-Oct-17 04:11N 36°45' W 075°41'1219.3
2014-Oct-17 03:33N 36°53' W 075°54'1515.3
2014-Oct-17 02:33N 36°59' W 076°11'8 8.2
2014-Oct-17 01:33N 36°56' W 076°20'0 0.0
2014-Oct-17 00:24N 36°56' W 076°20'0 0.0
2014-Oct-16 23:33N 36°56' W 076°20'0 0.0
2014-Oct-16 22:21N 36°56' W 076°20'0 0.0
2014-Oct-16 21:33N 36°56' W 076°20'0 0.0
2014-Oct-16 20:12N 36°56' W 076°20'0 0.0
2014-Oct-16 19:24N 36°56' W 076°20'0 0.0
2014-Oct-16 18:27N 36°56' W 076°20'0 0.0
2014-Oct-16 17:21N 36°56' W 076°20'0 0.0
2014-Oct-16 16:33N 36°56' W 076°20'0 0.0
2014-Oct-16 15:30N 36°56' W 076°20'2 1.7
2014-Oct-16 14:13N 36°58' W 076°20'812.1
2014-Oct-16 13:31N 36°59' W 076°10'1313.5
2014-Oct-16 12:33N 36°55' W 075°54'1310.8
2014-Oct-16 11:18N 36°50' W 075°39'18010.7
2014-Oct-15 18:33N 39°49' W 075°23'10 9.2
2014-Oct-15 17:30N 39°53' W 075°11'2 0.3
2014-Oct-15 09:34N 39°53' W 075°09'9 8.6
2014-Oct-15 08:33N 39°51' W 075°19'1210.9
2014-Oct-15 07:27N 39°43' W 075°31'910.1
2014-Oct-15 06:33N 39°34' W 075°33'1413.0
2014-Oct-15 05:29N 39°21' W 075°26'1616.3
2014-Oct-15 04:32N 39°08' W 075°14'1615.3
2014-Oct-15 03:31N 38°54' W 075°05'1111.2
2014-Oct-15 02:33N 38°45' W 074°58'1615.5
2014-Oct-15 01:30N 38°34' W 074°43'2914.8
2014-Oct-14 23:32N 38°55' W 074°18'1615.1
2014-Oct-14 22:30N 39°09' W 074°09'1415.0
2014-Oct-14 21:33N 39°22' W 074°02'1515.0
2014-Oct-14 20:33N 39°36' W 073°55'1515.0
2014-Oct-14 19:33N 39°51' W 073°52'1514.7
2014-Oct-14 18:31N 40°06' W 073°50'1213.0
2014-Oct-14 17:33N 40°19' W 073°49'1010.5
2014-Oct-14 16:34N 40°29' W 073°53'1311.2
2014-Oct-14 15:23N 40°40' W 074°03'2 1.4
2014-Oct-14 14:17N 40°40' W 074°05'0 0.0
2014-Oct-14 13:32N 40°40' W 074°05'0 0.0
2014-Oct-14 12:17N 40°40' W 074°05'0 0.0
2014-Oct-14 11:29N 40°40' W 074°05'0 0.0
2014-Oct-14 10:32N 40°40' W 074°05'0 0.0
2014-Oct-14 09:20N 40°40' W 074°05'0 0.0
2014-Oct-14 08:29N 40°40' W 074°05'0 0.0
2014-Oct-14 07:23N 40°40' W 074°05'0 0.0
2014-Oct-14 06:29N 40°40' W 074°05'0 0.0
2014-Oct-14 05:32N 40°40' W 074°05'0 0.0
2014-Oct-14 04:17N 40°40' W 074°05'0 0.0
2014-Oct-14 03:32N 40°40' W 074°05'0 0.0
2014-Oct-14 02:29N 40°40' W 074°05'0 0.0
2014-Oct-14 01:32N 40°40' W 074°05'0 0.0
2014-Oct-14 00:32N 40°40' W 074°05'0 0.0
2014-Oct-13 23:26N 40°40' W 074°05'0 0.0
2014-Oct-13 22:23N 40°40' W 074°05'0 0.0
2014-Oct-13 21:26N 40°40' W 074°05'0 0.0
2014-Oct-13 20:14N 40°40' W 074°05'0 0.0
2014-Oct-13 19:26N 40°40' W 074°05'0 0.0
2014-Oct-13 17:32N 40°40' W 074°05'0 0.0
2014-Oct-13 16:26N 40°40' W 074°05'0 0.0
2014-Oct-13 15:26N 40°40' W 074°05'0 0.0
2014-Oct-13 14:32N 40°40' W 074°05'0 0.0
2014-Oct-13 13:29N 40°40' W 074°05'0 0.0
2014-Oct-13 12:32N 40°40' W 074°05'0 0.0
2014-Oct-13 11:32N 40°40' W 074°05'0 0.0
2014-Oct-13 10:32N 40°40' W 074°05'1 1.2
2014-Oct-13 09:33N 40°40' W 074°04'7 7.2
2014-Oct-13 08:33N 40°33' W 074°01'1111.4
2014-Oct-13 07:34N 40°27' W 073°49'9 8.6
2014-Oct-13 06:33N 40°18' W 073°46'9 9.1
2014-Oct-13 05:33N 40°09' W 073°44'9 9.2
2014-Oct-13 04:33N 40°00' W 073°43'1413.4
2014-Oct-13 03:31N 39°46' W 073°40'1718.3
2014-Oct-13 02:33N 39°33' W 073°26'1918.6
2014-Oct-13 01:31N 39°18' W 073°10'  
Track history (hours):
 
Tides and Currents Weather Stations Pressure Air Temp Water Temp Dewpoint Dewpoint Depression Visibility Wind Speed Wind Dir Waves Ship Positions

Cap Isabel

Last reported at 2014-Oct-20 16:33 UTC. Time now 2014-Oct-31 19:19 UTC.
Position N 25°45' W 079°59'.
Warning: this ship's position is 11 days out of date.

Length 264 m; draft 9.6 m.

Type: Ship (hazmat cat C). MMSI: 477639500.

Date/timePositionNaut miles runAvg speedWind from/ knotsBaromVisibWave heightAir tempDewpointWater temp
2014-Oct-20 16:33N 25°45' W 079°59'1818.1
2014-Oct-20 15:33N 26°03' W 080°04'3 2.9
2014-Oct-20 14:33N 26°04' W 080°07'0 0.0
2014-Oct-20 13:32N 26°04' W 080°07'0 0.0
2014-Oct-20 12:29N 26°04' W 080°07'0 0.0
2014-Oct-20 11:32N 26°04' W 080°07'0 0.0
2014-Oct-20 10:23N 26°04' W 080°07'0 0.0
2014-Oct-20 09:32N 26°04' W 080°07'0 0.0
2014-Oct-20 08:23N 26°04' W 080°07'0 0.0
2014-Oct-20 07:26N 26°04' W 080°07'0 0.0
2014-Oct-20 06:23N 26°04' W 080°07'0 0.0
2014-Oct-20 05:23N 26°04' W 080°07'0 0.0
2014-Oct-20 04:29N 26°04' W 080°07'0 0.0
2014-Oct-20 03:29N 26°04' W 080°07'0 0.0
2014-Oct-20 02:29N 26°04' W 080°07'0 0.0
2014-Oct-20 01:29N 26°04' W 080°07'0 0.0
2014-Oct-20 00:32N 26°04' W 080°07'0 0.0
2014-Oct-19 23:32N 26°04' W 080°07'0 0.0
2014-Oct-19 22:32N 26°04' W 080°07'0 0.0
2014-Oct-19 21:32N 26°04' W 080°07'1 1.3
2014-Oct-19 20:33N 26°05' W 080°07'7 6.7
2014-Oct-19 19:33N 26°10' W 080°01'0 0.3
2014-Oct-19 18:27N 26°10' W 080°02'0 0.5
2014-Oct-19 17:30N 26°10' W 080°02'0 0.4
2014-Oct-19 16:30N 26°09' W 080°02'6 6.7
2014-Oct-19 15:33N 26°15' W 080°00'10 9.5
2014-Oct-19 14:33N 26°25' W 079°58'10 9.8
2014-Oct-19 13:33N 26°34' W 079°55'1010.2
2014-Oct-19 12:33N 26°44' W 079°53'1414.2
2014-Oct-19 11:33N 26°58' W 079°53'48710.6
2014-Oct-17 13:33N 34°21' W 075°58'14515.5
2014-Oct-17 04:11N 36°45' W 075°41'1219.3
2014-Oct-17 03:33N 36°53' W 075°54'1515.3
2014-Oct-17 02:33N 36°59' W 076°11'8 8.2
2014-Oct-17 01:33N 36°56' W 076°20'0 0.0
2014-Oct-17 00:24N 36°56' W 076°20'0 0.0
2014-Oct-16 23:33N 36°56' W 076°20'0 0.0
2014-Oct-16 22:21N 36°56' W 076°20'0 0.0
2014-Oct-16 21:33N 36°56' W 076°20'0 0.0
2014-Oct-16 20:12N 36°56' W 076°20'0 0.0
2014-Oct-16 19:24N 36°56' W 076°20'0 0.0
2014-Oct-16 18:27N 36°56' W 076°20'0 0.0
2014-Oct-16 17:21N 36°56' W 076°20'0 0.0
2014-Oct-16 16:33N 36°56' W 076°20'0 0.0
2014-Oct-16 15:30N 36°56' W 076°20'2 1.7
2014-Oct-16 14:13N 36°58' W 076°20'812.1
2014-Oct-16 13:31N 36°59' W 076°10'1313.5
2014-Oct-16 12:33N 36°55' W 075°54'1310.8
2014-Oct-16 11:18N 36°50' W 075°39'18010.7
2014-Oct-15 18:33N 39°49' W 075°23'10 9.2
2014-Oct-15 17:30N 39°53' W 075°11'2 0.3
2014-Oct-15 09:34N 39°53' W 075°09'9 8.6
2014-Oct-15 08:33N 39°51' W 075°19'1210.9
2014-Oct-15 07:27N 39°43' W 075°31'910.1
2014-Oct-15 06:33N 39°34' W 075°33'1413.0
2014-Oct-15 05:29N 39°21' W 075°26'1616.3
2014-Oct-15 04:32N 39°08' W 075°14'1615.3
2014-Oct-15 03:31N 38°54' W 075°05'1111.2
2014-Oct-15 02:33N 38°45' W 074°58'1615.5
2014-Oct-15 01:30N 38°34' W 074°43'2914.8
2014-Oct-14 23:32N 38°55' W 074°18'1615.1
2014-Oct-14 22:30N 39°09' W 074°09'1415.0
2014-Oct-14 21:33N 39°22' W 074°02'1515.0
2014-Oct-14 20:33N 39°36' W 073°55'1515.0
2014-Oct-14 19:33N 39°51' W 073°52'1514.7
2014-Oct-14 18:31N 40°06' W 073°50'1213.0
2014-Oct-14 17:33N 40°19' W 073°49'1010.5
2014-Oct-14 16:34N 40°29' W 073°53'1311.2
2014-Oct-14 15:23N 40°40' W 074°03'2 1.4
2014-Oct-14 14:17N 40°40' W 074°05'0 0.0
2014-Oct-14 13:32N 40°40' W 074°05'0 0.0
2014-Oct-14 12:17N 40°40' W 074°05'0 0.0
2014-Oct-14 11:29N 40°40' W 074°05'0 0.0
2014-Oct-14 10:32N 40°40' W 074°05'0 0.0
2014-Oct-14 09:20N 40°40' W 074°05'0 0.0
2014-Oct-14 08:29N 40°40' W 074°05'0 0.0
2014-Oct-14 07:23N 40°40' W 074°05'0 0.0
2014-Oct-14 06:29N 40°40' W 074°05'0 0.0
2014-Oct-14 05:32N 40°40' W 074°05'0 0.0
2014-Oct-14 04:17N 40°40' W 074°05'0 0.0
2014-Oct-14 03:32N 40°40' W 074°05'0 0.0
2014-Oct-14 02:29N 40°40' W 074°05'0 0.0
2014-Oct-14 01:32N 40°40' W 074°05'0 0.0
2014-Oct-14 00:32N 40°40' W 074°05'0 0.0
2014-Oct-13 23:26N 40°40' W 074°05'0 0.0
2014-Oct-13 22:23N 40°40' W 074°05'0 0.0
2014-Oct-13 21:26N 40°40' W 074°05'0 0.0
2014-Oct-13 20:14N 40°40' W 074°05'0 0.0
2014-Oct-13 19:26N 40°40' W 074°05'0 0.0
2014-Oct-13 17:32N 40°40' W 074°05'0 0.0
2014-Oct-13 16:26N 40°40' W 074°05'0 0.0
2014-Oct-13 15:26N 40°40' W 074°05'0 0.0
2014-Oct-13 14:32N 40°40' W 074°05'0 0.0
2014-Oct-13 13:29N 40°40' W 074°05'0 0.0
2014-Oct-13 12:32N 40°40' W 074°05'0 0.0
2014-Oct-13 11:32N 40°40' W 074°05'0 0.0
2014-Oct-13 10:32N 40°40' W 074°05'1 1.2
2014-Oct-13 09:33N 40°40' W 074°04'7 7.2
2014-Oct-13 08:33N 40°33' W 074°01'1111.4
2014-Oct-13 07:34N 40°27' W 073°49'9 8.6
2014-Oct-13 06:33N 40°18' W 073°46'9 9.1
2014-Oct-13 05:33N 40°09' W 073°44'9 9.2
2014-Oct-13 04:33N 40°00' W 073°43'1413.4
2014-Oct-13 03:31N 39°46' W 073°40'1718.3
2014-Oct-13 02:33N 39°33' W 073°26'1918.6
2014-Oct-13 01:31N 39°18' W 073°10'  

Dump ship's entire track history